createdAt,value
2023-05-05T00:02:06.899Z,5.28
2023-05-05T00:04:33.156Z,4.75
2023-05-05T00:06:59.459Z,4.70
2023-05-05T00:09:25.698Z,4.82
2023-05-05T00:11:51.935Z,4.65
2023-05-05T00:14:18.232Z,4.57
2023-05-05T00:16:44.496Z,4.85
2023-05-05T00:19:11.191Z,5.07
2023-05-05T00:21:37.455Z,4.65
2023-05-05T00:24:03.814Z,4.75
2023-05-05T00:26:30.181Z,4.65
2023-05-05T00:28:56.432Z,4.65
2023-05-05T00:31:23.650Z,5.30
2023-05-05T00:33:49.913Z,4.93
2023-05-05T00:36:16.138Z,4.82
2023-05-05T00:38:42.373Z,4.63
2023-05-05T00:41:08.605Z,5.30
2023-05-05T00:43:34.881Z,5.20
2023-05-05T00:46:02.877Z,5.32
2023-05-05T00:48:32.377Z,5.43
2023-05-05T00:50:58.928Z,5.55
2023-05-05T00:53:26.560Z,5.80
2023-05-05T00:55:53.208Z,5.82
2023-05-05T00:58:19.461Z,6.20
2023-05-05T01:00:45.707Z,6.40
2023-05-05T01:03:15.207Z,6.85
2023-05-05T01:05:47.293Z,6.03
2023-05-05T01:08:21.934Z,6.35
2023-05-05T01:10:50.974Z,6.45
2023-05-05T01:13:42.634Z,6.22
2023-05-05T01:16:14.810Z,6.63
2023-05-05T01:18:53.195Z,5.93
2023-05-05T01:21:27.381Z,6.50
2023-05-05T01:23:59.464Z,6.20
2023-05-05T01:26:44.761Z,6.07
2023-05-05T01:29:20.176Z,6.10
2023-05-05T01:31:53.738Z,5.57
2023-05-05T01:34:24.074Z,5.72
2023-05-05T01:36:53.144Z,6.40
2023-05-05T01:39:20.887Z,5.38
2023-05-05T01:41:48.350Z,5.30
2023-05-05T01:44:15.453Z,5.55
2023-05-05T01:46:41.684Z,5.40
2023-05-05T01:49:09.808Z,6.18
2023-05-05T01:51:36.445Z,5.45
2023-05-05T01:54:04.232Z,5.45
2023-05-05T01:56:31.752Z,5.10
2023-05-05T01:58:58.838Z,5.22
2023-05-05T02:01:25.964Z,5.55
2023-05-05T02:03:53.945Z,5.72
2023-05-05T02:06:21.541Z,5.50
2023-05-05T02:08:49.160Z,5.93
2023-05-05T02:11:15.906Z,5.70
2023-05-05T02:13:42.967Z,5.22
2023-05-05T02:16:09.921Z,6.43
2023-05-05T02:21:02.797Z,5.97
2023-05-05T02:23:29.852Z,5.90
2023-05-05T02:25:58.891Z,6.75
2023-05-05T02:28:45.409Z,6.20
2023-05-05T02:31:12.032Z,6.47
2023-05-05T02:33:39.079Z,6.05
2023-05-05T02:36:14.307Z,5.70
2023-05-05T02:38:42.897Z,7.30
2023-05-05T02:41:11.252Z,6.53
2023-05-05T02:43:38.944Z,6.45
2023-05-05T02:46:05.222Z,5.70
2023-05-05T02:48:31.529Z,6.50
2023-05-05T02:50:57.773Z,6.45
2023-05-05T02:53:25.521Z,6.15
2023-05-05T02:55:53.527Z,6.18
2023-05-05T02:58:25.594Z,5.90
2023-05-05T03:01:10.690Z,6.15
2023-05-05T03:03:44.635Z,6.28
2023-05-05T03:06:15.977Z,5.70
2023-05-05T03:09:01.398Z,5.70
2023-05-05T03:11:31.772Z,5.55
2023-05-05T03:14:03.980Z,5.88
2023-05-05T03:16:31.516Z,5.90
2023-05-05T03:18:59.422Z,5.35
2023-05-05T03:21:26.441Z,5.65
2023-05-05T03:26:18.892Z,5.28
2023-05-05T03:28:45.158Z,5.28
2023-05-05T03:31:30.376Z,5.18
2023-05-05T03:33:56.631Z,5.15
2023-05-05T03:36:22.965Z,5.03
2023-05-05T03:38:49.193Z,5.20
2023-05-05T03:41:15.492Z,5.05
2023-05-05T03:43:41.690Z,5.70
2023-05-05T03:46:08.490Z,5.85
2023-05-05T03:48:34.817Z,6.03
2023-05-05T03:51:01.079Z,5.95
2023-05-05T03:53:27.366Z,6.45
2023-05-05T03:55:53.597Z,6.40
2023-05-05T03:58:19.795Z,6.38
2023-05-05T04:00:46.008Z,7.28
2023-05-05T04:03:12.415Z,6.47
2023-05-05T04:05:38.732Z,6.85
2023-05-05T04:08:05.215Z,6.93
2023-05-05T04:10:31.546Z,7.43
2023-05-05T04:12:57.814Z,7.50
2023-05-05T04:15:24.143Z,6.90
2023-05-05T04:17:50.398Z,7.25
2023-05-05T04:20:16.712Z,5.80
2023-05-05T04:22:43.011Z,6.15
2023-05-05T04:25:09.564Z,5.72
2023-05-05T04:27:35.798Z,6.10
2023-05-05T04:30:02.084Z,5.65
2023-05-05T04:32:28.390Z,6.28
2023-05-05T04:34:54.650Z,6.28
2023-05-05T04:37:21.010Z,5.78
2023-05-05T04:39:47.238Z,5.50
2023-05-05T04:42:13.530Z,6.13
2023-05-05T04:44:39.753Z,5.22
2023-05-05T04:47:05.995Z,5.00
2023-05-05T04:49:32.222Z,5.57
2023-05-05T04:51:58.452Z,5.57
2023-05-05T04:54:24.742Z,5.22
2023-05-05T04:56:51.115Z,5.72
2023-05-05T04:59:17.389Z,4.95
2023-05-05T05:01:43.842Z,5.57
2023-05-05T05:04:10.719Z,5.88
2023-05-05T05:06:37.007Z,5.10
2023-05-05T05:09:03.402Z,4.93
2023-05-05T05:11:29.691Z,4.72
2023-05-05T05:13:55.960Z,5.13
2023-05-05T05:16:22.247Z,5.18
2023-05-05T05:18:48.499Z,4.60
2023-05-05T05:21:14.717Z,5.18
2023-05-05T05:23:40.928Z,4.65
2023-05-05T05:26:07.149Z,5.25
2023-05-05T05:28:33.386Z,5.07
2023-05-05T05:31:00.083Z,6.05
2023-05-05T05:33:26.299Z,5.88
2023-05-05T05:35:52.593Z,5.05
2023-05-05T05:38:18.923Z,5.60
2023-05-05T05:40:45.191Z,6.20
2023-05-05T05:43:11.396Z,5.32
2023-05-05T05:45:37.765Z,4.93
2023-05-05T05:48:04.303Z,4.60
2023-05-05T05:50:30.568Z,4.65
2023-05-05T05:52:56.816Z,4.90
2023-05-05T05:55:23.048Z,5.30
2023-05-05T05:57:49.259Z,4.68
2023-05-05T06:00:18.463Z,4.72
2023-05-05T06:02:44.814Z,4.55
2023-05-05T06:05:12.562Z,5.07
2023-05-05T06:07:38.779Z,5.05
2023-05-05T06:10:25.175Z,5.35
2023-05-05T06:12:51.969Z,5.72
2023-05-05T06:15:18.230Z,5.80
2023-05-05T06:17:44.455Z,4.35
2023-05-05T06:20:11.028Z,4.68
2023-05-05T06:22:37.230Z,4.22
2023-05-05T06:25:03.555Z,4.50
2023-05-05T06:27:29.859Z,4.72
2023-05-05T06:29:56.317Z,4.68
2023-05-05T06:32:22.569Z,4.57
2023-05-05T06:34:48.931Z,4.55
2023-05-05T06:37:15.322Z,4.07
2023-05-05T06:39:41.619Z,4.25
2023-05-05T06:42:07.832Z,3.95
2023-05-05T06:44:36.218Z,5.57
2023-05-05T06:47:03.616Z,4.18
2023-05-05T06:49:29.860Z,4.35
2023-05-05T06:51:56.457Z,4.78
2023-05-05T06:54:22.720Z,4.60
2023-05-05T06:56:48.934Z,4.10
2023-05-05T06:59:15.524Z,6.05
2023-05-05T07:01:41.787Z,3.95
2023-05-05T07:04:08.162Z,6.45
2023-05-05T07:06:34.467Z,4.70
2023-05-05T07:09:00.712Z,4.53
2023-05-05T07:11:26.970Z,4.32
2023-05-05T07:13:53.178Z,4.00
2023-05-05T07:16:19.619Z,5.70
2023-05-05T07:18:45.861Z,4.38
2023-05-05T07:21:12.081Z,4.38
2023-05-05T07:23:39.037Z,4.60
2023-05-05T07:28:31.425Z,4.20
2023-05-05T07:30:57.672Z,3.60
2023-05-05T07:33:23.931Z,4.00
2023-05-05T07:35:50.596Z,3.70
2023-05-05T07:38:16.925Z,3.80
2023-05-05T07:40:43.147Z,4.25
2023-05-05T07:43:09.629Z,4.25
2023-05-05T07:45:35.983Z,4.13
2023-05-05T07:48:02.335Z,3.75
2023-05-05T07:50:28.564Z,3.90
2023-05-05T07:53:02.425Z,3.35
2023-05-05T07:55:36.750Z,3.95
2023-05-05T07:58:03.741Z,3.63
2023-05-05T08:00:29.966Z,3.40
2023-05-05T08:02:56.312Z,2.72
2023-05-05T08:05:22.565Z,2.85
2023-05-05T08:07:48.810Z,2.70
2023-05-05T08:10:15.151Z,3.00
2023-05-05T08:12:41.589Z,2.78
2023-05-05T08:15:08.376Z,3.03
2023-05-05T08:17:48.632Z,2.65
2023-05-05T08:20:15.905Z,2.72
2023-05-05T08:22:42.803Z,2.60
2023-05-05T08:27:37.580Z,2.50
2023-05-05T08:30:04.100Z,2.60
2023-05-05T08:32:31.184Z,2.70
2023-05-05T08:34:57.435Z,2.70
2023-05-05T08:37:23.781Z,2.45
2023-05-05T08:39:50.042Z,2.80
2023-05-05T08:42:28.932Z,2.35
2023-05-05T08:44:59.382Z,3.65
2023-05-05T08:47:25.644Z,2.30
2023-05-05T08:49:53.793Z,2.80
2023-05-05T08:52:22.816Z,2.50
2023-05-05T08:55:02.061Z,2.55
2023-05-05T08:57:32.231Z,2.45
2023-05-05T08:59:59.208Z,2.92
2023-05-05T09:02:28.402Z,3.15
2023-05-05T09:04:54.720Z,2.35
2023-05-05T09:07:21.109Z,2.22
2023-05-05T09:09:48.009Z,2.25
2023-05-05T09:12:15.670Z,2.08
2023-05-05T09:14:41.940Z,1.73
2023-05-05T09:17:21.723Z,1.50
2023-05-05T09:20:14.237Z,1.85
2023-05-05T09:22:46.056Z,0.80
2023-05-05T09:25:13.261Z,1.75
2023-05-05T09:27:41.283Z,1.65
2023-05-05T09:30:08.575Z,1.95
2023-05-05T09:32:45.636Z,1.77
2023-05-05T09:37:38.646Z,1.40
2023-05-05T09:40:05.336Z,2.05
2023-05-05T09:42:31.770Z,1.90
2023-05-05T09:44:59.791Z,1.50
2023-05-05T09:47:36.293Z,1.70
2023-05-05T09:50:02.874Z,1.40
2023-05-05T09:52:30.212Z,1.40
2023-05-05T09:54:57.041Z,1.17
2023-05-05T09:57:33.624Z,1.70
2023-05-05T10:00:01.209Z,1.10
2023-05-05T10:02:32.724Z,1.42
2023-05-05T10:05:12.724Z,1.50
2023-05-05T10:07:40.929Z,1.20
2023-05-05T10:10:08.313Z,1.02
2023-05-05T10:12:38.001Z,1.35
2023-05-05T10:15:05.514Z,1.50
2023-05-05T10:17:35.091Z,1.70
2023-05-05T10:20:01.972Z,1.52
2023-05-05T10:22:29.354Z,1.75
2023-05-05T10:25:03.024Z,1.40
2023-05-05T10:27:32.399Z,1.20
2023-05-05T10:30:06.140Z,1.73
2023-05-05T10:33:00.534Z,1.55
2023-05-05T10:37:57.973Z,2.00
2023-05-05T10:40:24.884Z,1.90
2023-05-05T10:42:51.667Z,1.33
2023-05-05T10:45:18.006Z,1.38
2023-05-05T10:50:29.589Z,1.30
2023-05-05T10:53:15.723Z,1.45
2023-05-05T10:55:57.144Z,1.40
2023-05-05T10:58:46.942Z,1.30
2023-05-05T11:01:29.191Z,1.70
2023-05-05T11:04:14.008Z,1.08
2023-05-05T11:06:40.268Z,1.40
2023-05-05T11:09:25.909Z,1.65
2023-05-05T11:12:02.362Z,1.60
2023-05-05T11:14:28.618Z,1.40
2023-05-05T11:16:55.792Z,1.92
2023-05-05T11:19:40.660Z,1.35
2023-05-05T11:22:06.883Z,1.30
2023-05-05T11:24:33.447Z,1.67
2023-05-05T11:26:59.661Z,1.63
2023-05-05T11:29:25.961Z,1.70
2023-05-05T11:32:11.037Z,1.27
2023-05-05T11:34:47.664Z,1.95
2023-05-05T11:37:14.773Z,1.45
2023-05-05T11:39:46.849Z,1.00
2023-05-05T11:42:22.272Z,1.00
2023-05-05T11:44:49.006Z,1.25
2023-05-05T11:47:15.229Z,1.00
2023-05-05T11:49:41.594Z,2.42
2023-05-05T11:52:09.262Z,1.38
2023-05-05T11:54:36.323Z,1.75
2023-05-05T11:57:05.184Z,1.30
2023-05-05T11:59:32.110Z,1.08
2023-05-05T12:01:58.709Z,1.55
2023-05-05T12:04:25.059Z,1.23
2023-05-05T12:09:18.136Z,1.52
2023-05-05T12:11:51.431Z,1.63
2023-05-05T12:14:17.887Z,1.63
2023-05-05T12:19:14.221Z,1.30
2023-05-05T12:21:45.407Z,1.42
2023-05-05T12:24:15.182Z,1.48
2023-05-05T12:26:41.740Z,1.70
2023-05-05T12:29:07.999Z,1.55
2023-05-05T12:31:38.010Z,1.50
2023-05-05T12:34:04.803Z,1.38
2023-05-05T12:36:33.400Z,1.40
2023-05-05T12:38:59.651Z,1.23
2023-05-05T12:41:25.937Z,1.40
2023-05-05T12:43:56.624Z,1.75
2023-05-05T12:46:23.239Z,1.80
2023-05-05T12:49:05.950Z,2.08
2023-05-05T12:51:32.621Z,2.00
2023-05-05T12:54:09.724Z,1.67
2023-05-05T12:59:03.669Z,1.40
2023-05-05T13:01:30.055Z,1.30
2023-05-05T13:04:06.149Z,1.67
2023-05-05T13:06:32.632Z,1.83
2023-05-05T13:11:25.008Z,1.45
2023-05-05T13:13:51.266Z,1.65
2023-05-05T13:16:17.659Z,1.58
2023-05-05T13:18:47.484Z,1.80
2023-05-05T13:21:13.802Z,1.70
2023-05-05T13:23:44.111Z,1.42
2023-05-05T13:26:10.728Z,1.75
2023-05-05T13:28:36.941Z,1.17
2023-05-05T13:31:03.167Z,1.70
2023-05-05T13:33:29.417Z,1.20
2023-05-05T13:35:55.845Z,1.20
2023-05-05T13:38:22.096Z,1.23
2023-05-05T13:40:48.326Z,1.50
2023-05-05T13:43:14.580Z,1.27
2023-05-05T13:45:42.058Z,1.48
2023-05-05T13:48:08.469Z,1.40
2023-05-05T13:50:34.744Z,1.55
2023-05-05T13:53:01.139Z,1.27
2023-05-05T13:55:28.265Z,1.40
2023-05-05T13:57:54.517Z,1.42
2023-05-05T14:00:21.038Z,1.38
2023-05-05T14:05:16.633Z,1.00
2023-05-05T14:07:42.964Z,1.27
2023-05-05T14:10:09.413Z,1.20
2023-05-05T14:15:02.607Z,1.10
2023-05-05T14:17:28.930Z,1.00
2023-05-05T14:19:55.430Z,1.00
2023-05-05T14:24:48.178Z,1.00
2023-05-05T14:27:14.478Z,0.80
2023-05-05T14:29:40.689Z,1.02
2023-05-05T14:32:07.077Z,1.15
2023-05-05T14:34:33.322Z,0.98
2023-05-05T14:36:59.547Z,1.58
2023-05-05T14:39:26.134Z,1.08
2023-05-05T14:44:18.853Z,1.02
2023-05-05T14:49:12.583Z,1.13
2023-05-05T14:51:38.930Z,1.10
2023-05-05T14:54:11.703Z,1.35
2023-05-05T14:56:43.605Z,1.05
2023-05-05T14:59:09.916Z,1.27
2023-05-05T15:01:37.173Z,1.45
2023-05-05T15:04:03.476Z,1.30
2023-05-05T15:06:29.868Z,1.17
2023-05-05T15:08:56.246Z,1.30
2023-05-05T15:11:22.621Z,1.17
2023-05-05T15:13:48.971Z,1.50
2023-05-05T15:16:15.499Z,1.40
2023-05-05T15:18:41.743Z,1.35
2023-05-05T15:21:08.007Z,1.20
2023-05-05T15:23:34.670Z,1.45
2023-05-05T15:28:27.295Z,1.52
2023-05-05T15:30:53.531Z,1.92
2023-05-05T15:33:19.769Z,1.30
2023-05-05T15:35:45.996Z,1.70
2023-05-05T15:38:12.248Z,1.83
2023-05-05T15:40:38.493Z,2.17
2023-05-05T15:43:04.742Z,1.63
2023-05-05T15:45:30.995Z,1.25
2023-05-05T15:47:57.259Z,1.75
2023-05-05T15:50:23.908Z,1.20
2023-05-05T15:52:50.300Z,1.30
2023-05-05T15:55:17.384Z,1.38
2023-05-05T15:57:44.092Z,1.10
2023-05-05T16:00:10.543Z,1.20
2023-05-05T16:02:36.901Z,1.48
2023-05-05T16:05:03.185Z,1.73
2023-05-05T16:07:29.431Z,1.70
2023-05-05T16:09:56.918Z,1.17
2023-05-05T16:12:23.207Z,1.50
2023-05-05T16:14:49.440Z,2.05
2023-05-05T16:17:15.646Z,1.83
2023-05-05T16:19:41.871Z,2.15
2023-05-05T16:22:08.084Z,2.42
2023-05-05T16:24:34.394Z,1.58
2023-05-05T16:27:00.602Z,2.55
2023-05-05T16:29:26.934Z,1.92
2023-05-05T16:31:53.182Z,2.38
2023-05-05T16:34:19.408Z,1.90
2023-05-05T16:36:46.504Z,2.45
2023-05-05T16:39:13.533Z,1.70
2023-05-05T16:41:40.089Z,1.73
2023-05-05T16:44:06.545Z,2.17
2023-05-05T16:46:37.163Z,1.98
2023-05-05T16:49:04.025Z,2.03
2023-05-05T16:51:30.236Z,1.85
2023-05-05T16:53:56.446Z,1.73
2023-05-05T16:56:22.716Z,2.40
2023-05-05T16:58:48.934Z,1.73
2023-05-05T17:01:15.237Z,2.28
2023-05-05T17:03:41.493Z,1.98
2023-05-05T17:06:07.883Z,2.97
2023-05-05T17:08:34.105Z,2.38
2023-05-05T17:11:00.350Z,2.90
2023-05-05T17:13:26.661Z,2.33
2023-05-05T17:15:52.889Z,2.53
2023-05-05T17:18:21.073Z,2.42
2023-05-05T17:20:48.578Z,2.78
2023-05-05T17:23:22.284Z,2.17
2023-05-05T17:25:48.504Z,2.17
2023-05-05T17:28:15.705Z,1.60
2023-05-05T17:30:41.984Z,2.30
2023-05-05T17:33:08.265Z,2.33
2023-05-05T17:35:34.576Z,2.35
2023-05-05T17:38:00.791Z,2.17
2023-05-05T17:40:27.072Z,2.10
2023-05-05T17:42:53.299Z,2.58
2023-05-05T17:45:19.517Z,2.80
2023-05-05T17:47:45.792Z,2.40
2023-05-05T17:50:12.205Z,1.80
2023-05-05T17:52:40.292Z,2.55
2023-05-05T17:55:07.170Z,3.00
2023-05-05T17:57:33.620Z,2.88
2023-05-05T18:00:02.104Z,2.10
2023-05-05T18:02:28.668Z,2.35
2023-05-05T18:04:54.919Z,2.25
2023-05-05T18:07:21.179Z,2.47
2023-05-05T18:09:47.527Z,2.08
2023-05-05T18:12:13.791Z,2.47
2023-05-05T18:14:40.009Z,2.22
2023-05-05T18:17:06.323Z,2.00
2023-05-05T18:19:32.547Z,1.92
2023-05-05T18:21:59.065Z,2.53
2023-05-05T18:24:25.615Z,2.63
2023-05-05T18:26:52.346Z,2.85
2023-05-05T18:29:18.983Z,2.92
2023-05-05T18:31:49.294Z,2.63
2023-05-05T18:34:16.686Z,3.20
2023-05-05T18:36:42.996Z,2.88
2023-05-05T18:39:09.242Z,2.92
2023-05-05T18:41:35.679Z,2.67
2023-05-05T18:44:01.957Z,2.85
2023-05-05T18:46:28.214Z,2.55
2023-05-05T18:48:54.470Z,2.70
2023-05-05T18:51:20.713Z,2.85
2023-05-05T18:53:46.981Z,3.00
2023-05-05T18:56:13.279Z,2.58
2023-05-05T18:58:39.513Z,3.08
2023-05-05T19:01:05.905Z,2.92
2023-05-05T19:03:32.334Z,2.78
2023-05-05T19:05:58.542Z,3.30
2023-05-05T19:08:24.832Z,3.33
2023-05-05T19:10:51.256Z,3.35
2023-05-05T19:13:17.577Z,3.00
2023-05-05T19:15:44.558Z,2.50
2023-05-05T19:20:38.489Z,2.90
2023-05-05T19:23:05.064Z,2.53
2023-05-05T19:25:31.566Z,2.67
2023-05-05T19:27:57.897Z,2.60
2023-05-05T19:30:24.112Z,2.70
2023-05-05T19:32:50.441Z,2.67
2023-05-05T19:35:16.743Z,2.90
2023-05-05T19:37:42.959Z,2.78
2023-05-05T19:40:09.513Z,2.55
2023-05-05T19:42:35.855Z,2.15
2023-05-05T19:45:02.506Z,2.67
2023-05-05T19:47:28.744Z,2.53
2023-05-05T19:49:55.448Z,2.33
2023-05-05T19:52:22.677Z,2.55
2023-05-05T19:54:49.332Z,2.55
2023-05-05T19:57:16.236Z,2.40
2023-05-05T20:02:12.113Z,2.13
2023-05-05T20:04:38.354Z,2.40
2023-05-05T20:07:04.885Z,2.47
2023-05-05T20:09:31.186Z,2.33
2023-05-05T20:11:58.214Z,2.70
2023-05-05T20:14:24.585Z,2.88
2023-05-05T20:16:50.898Z,3.00
2023-05-05T20:19:18.086Z,2.70
2023-05-05T20:21:44.464Z,2.60
2023-05-05T20:24:10.764Z,2.88
2023-05-05T20:26:36.974Z,2.70
2023-05-05T20:29:03.234Z,2.53
2023-05-05T20:31:29.475Z,3.03
2023-05-05T20:33:55.765Z,2.83
2023-05-05T20:36:22.744Z,2.67
2023-05-05T20:38:49.002Z,2.30
2023-05-05T20:41:15.265Z,2.55
2023-05-05T20:43:41.528Z,2.45
2023-05-05T20:46:10.914Z,2.53
2023-05-05T20:48:42.288Z,2.60
2023-05-05T20:51:09.092Z,2.63
2023-05-05T20:53:35.364Z,3.42
2023-05-05T20:56:01.692Z,4.70
2023-05-05T20:58:28.008Z,3.38
2023-05-05T21:00:54.237Z,3.05
2023-05-05T21:03:20.648Z,2.92
2023-05-05T21:05:46.922Z,2.90
2023-05-05T21:08:13.156Z,3.20
2023-05-05T21:10:39.406Z,2.60
2023-05-05T21:13:05.730Z,2.97
2023-05-05T21:15:32.045Z,3.10
2023-05-05T21:17:58.613Z,3.50
2023-05-05T21:20:24.878Z,3.20
2023-05-05T21:22:51.209Z,2.85
2023-05-05T21:25:18.622Z,2.72
2023-05-05T21:27:45.117Z,3.38
2023-05-05T21:30:11.602Z,3.10
2023-05-05T21:32:38.428Z,2.85
2023-05-05T21:35:05.492Z,3.28
2023-05-05T21:37:31.861Z,3.28
2023-05-05T21:39:58.145Z,3.20
2023-05-05T21:42:24.480Z,3.35
2023-05-05T21:44:50.791Z,2.92
2023-05-05T21:47:17.563Z,3.35
2023-05-05T21:49:43.778Z,3.33
2023-05-05T21:52:10.027Z,3.33
2023-05-05T21:54:36.570Z,3.35
2023-05-05T21:57:02.816Z,3.30
2023-05-05T21:59:29.072Z,3.17
2023-05-05T22:01:55.330Z,3.42
2023-05-05T22:04:21.534Z,3.72
2023-05-05T22:06:47.769Z,3.13
2023-05-05T22:09:13.969Z,3.40
2023-05-05T22:11:40.185Z,3.70
2023-05-05T22:14:06.464Z,3.40
2023-05-05T22:16:32.715Z,3.75
2023-05-05T22:18:58.954Z,4.32
2023-05-05T22:21:25.173Z,3.28
2023-05-05T22:23:51.373Z,3.38
2023-05-05T22:26:17.593Z,3.40
2023-05-05T22:28:43.788Z,4.00
2023-05-05T22:31:10.052Z,3.78
2023-05-05T22:33:36.462Z,3.95
2023-05-05T22:36:02.696Z,3.50
2023-05-05T22:38:29.024Z,3.80
2023-05-05T22:40:55.291Z,3.88
2023-05-05T22:43:21.561Z,4.05
2023-05-05T22:45:47.951Z,5.03
2023-05-05T22:48:14.869Z,3.88
2023-05-05T22:53:07.549Z,3.60
2023-05-05T22:55:34.086Z,3.65
2023-05-05T22:58:00.342Z,3.53
2023-05-05T23:00:26.602Z,3.88
2023-05-05T23:02:53.105Z,4.80
2023-05-05T23:05:19.323Z,4.00
2023-05-05T23:07:45.639Z,4.28
2023-05-05T23:10:11.828Z,4.57
2023-05-05T23:12:38.119Z,4.55
2023-05-05T23:15:05.452Z,4.45
2023-05-05T23:17:31.731Z,4.20
2023-05-05T23:19:57.995Z,4.78
2023-05-05T23:22:24.271Z,4.65
2023-05-05T23:24:50.499Z,5.18
2023-05-05T23:27:16.738Z,4.32
2023-05-05T23:29:42.947Z,4.82
2023-05-05T23:32:09.187Z,4.60
2023-05-05T23:34:35.424Z,4.95
2023-05-05T23:37:02.550Z,4.28
2023-05-05T23:39:32.724Z,4.70
2023-05-05T23:41:58.939Z,5.07
2023-05-05T23:44:25.252Z,4.78
2023-05-05T23:46:51.471Z,4.65
2023-05-05T23:49:17.713Z,5.10
2023-05-05T23:51:43.899Z,4.72
2023-05-05T23:54:10.213Z,4.82
2023-05-05T23:56:36.445Z,5.93
2023-05-05T23:59:02.782Z,5.07
